Time;durP1;ratioP1;P1;durP2;ratioP2;P2;SDS_P1;SDS_P2;PMS_P1;PMS_P2;Temp;Humidity;BMP_temperature;BMP_pressure;BME280_temperature;BME280_humidity;BME280_pressure;Samples;Min_cycle;Max_cycle;Signal;HPM_P1;HPM_P2
2021/12/30 00:01:19;;;;;;;30.90;5.55;;;;;;;10.35;100.00;100869.16;5041327;28;20037;-71
2021/12/30 00:03:47;;;;;;;35.15;5.85;;;;;;;10.35;100.00;100872.56;5044204;28;20086;-70
2021/12/30 00:06:13;;;;;;;35.50;5.35;;;;;;;10.34;100.00;100886.50;5038534;28;20059;-71
2021/12/30 00:08:39;;;;;;;36.28;5.07;;;;;;;10.32;100.00;100876.28;5026658;28;20029;-70
2021/12/30 00:11:07;;;;;;;38.67;5.00;;;;;;;10.32;100.00;100880.63;5045806;28;20040;-70
2021/12/30 00:13:34;;;;;;;33.40;4.78;;;;;;;10.30;100.00;100890.31;5041786;28;20033;-70
2021/12/30 00:16:02;;;;;;;37.83;5.57;;;;;;;10.33;100.00;100898.63;5036004;28;20056;-70
2021/12/30 00:18:28;;;;;;;46.85;5.30;;;;;;;10.33;100.00;100890.84;5041739;28;20084;-70
2021/12/30 00:20:54;;;;;;;40.33;5.47;;;;;;;10.31;100.00;100894.56;5046568;28;20044;-74
2021/12/30 00:23:20;;;;;;;31.42;5.97;;;;;;;10.29;100.00;100904.25;5044136;28;20033;-71
2021/12/30 00:25:48;;;;;;;45.08;5.97;;;;;;;10.28;100.00;100911.22;5031352;28;20040;-70
2021/12/30 00:28:23;;;;;;;30.55;4.50;;;;;;;10.29;100.00;100906.84;5046583;28;20063;-70
2021/12/30 00:30:53;;;;;;;38.83;5.68;;;;;;;10.33;100.00;100908.19;5045987;28;20479;-70
2021/12/30 00:33:19;;;;;;;32.92;5.20;;;;;;;10.32;100.00;100916.91;5045654;28;20085;-70
2021/12/30 00:35:45;;;;;;;29.30;5.57;;;;;;;10.30;100.00;100917.09;5046016;28;20075;-70
2021/12/30 00:38:11;;;;;;;33.33;5.28;;;;;;;10.35;100.00;100926.19;5042789;28;20364;-70
2021/12/30 00:40:38;;;;;;;34.88;6.05;;;;;;;10.36;100.00;100922.63;5026568;28;20043;-70
2021/12/30 00:43:05;;;;;;;33.72;5.32;;;;;;;10.33;100.00;100924.56;5040284;28;20033;-70
2021/12/30 00:45:33;;;;;;;45.28;5.68;;;;;;;10.33;100.00;100919.38;5039325;28;20115;-70
2021/12/30 00:47:59;;;;;;;31.52;4.80;;;;;;;10.38;100.00;100926.72;5042162;28;20044;-70
2021/12/30 00:50:26;;;;;;;29.00;4.22;;;;;;;10.35;100.00;100926.19;5041088;28;20060;-70
2021/12/30 00:52:53;;;;;;;25.50;4.80;;;;;;;10.36;100.00;100925.22;5049070;28;20041;-70
2021/12/30 00:55:19;;;;;;;39.63;6.63;;;;;;;10.35;100.00;100934.78;5040031;28;20062;-70
2021/12/30 00:57:45;;;;;;;32.95;5.13;;;;;;;10.43;100.00;100937.41;5042228;28;20128;-71
2021/12/30 01:00:14;;;;;;;31.80;4.05;;;;;;;10.45;100.00;100934.69;5044201;28;20024;-70
2021/12/30 01:02:41;;;;;;;38.60;6.82;;;;;;;10.43;100.00;100931.41;5042750;28;20922;-70
2021/12/30 01:05:08;;;;;;;42.67;5.75;;;;;;;10.43;100.00;100932.22;5045665;28;20059;-70
2021/12/30 01:07:33;;;;;;;33.05;4.78;;;;;;;10.49;100.00;100931.66;5038676;28;20057;-70
2021/12/30 01:10:00;;;;;;;24.55;4.97;;;;;;;10.47;100.00;100920.63;5031298;28;20112;-70
2021/12/30 01:12:26;;;;;;;37.55;4.25;;;;;;;10.44;100.00;100930.47;5019929;28;20036;-70
2021/12/30 01:14:52;;;;;;;32.08;5.07;;;;;;;10.50;100.00;100929.84;5046095;28;20021;-70
2021/12/30 01:17:38;;;;;;;30.73;4.68;;;;;;;10.46;100.00;100937.13;5028181;28;20061;-70
2021/12/30 01:20:05;;;;;;;33.72;5.22;;;;;;;10.41;100.00;100939.34;5046000;28;20025;-70
2021/12/30 01:22:33;;;;;;;36.03;5.68;;;;;;;10.38;100.00;100936.25;5047337;28;20420;-70
2021/12/30 01:24:59;;;;;;;35.33;4.90;;;;;;;10.39;100.00;100945.66;5042917;28;20032;-70
2021/12/30 01:27:25;;;;;;;29.70;4.15;;;;;;;10.35;100.00;100955.50;5047411;28;20040;-70
2021/12/30 01:29:51;;;;;;;45.58;5.85;;;;;;;10.33;100.00;100955.66;5038283;28;20033;-70
2021/12/30 01:32:18;;;;;;;26.60;4.03;;;;;;;10.41;100.00;100952.31;5042990;28;20032;-70
2021/12/30 01:34:44;;;;;;;39.42;5.50;;;;;;;10.41;100.00;100961.88;5045370;28;20028;-71
2021/12/30 01:37:12;;;;;;;26.08;5.20;;;;;;;10.39;100.00;100966.41;5045309;28;20036;-70
2021/12/30 01:39:39;;;;;;;27.33;4.20;;;;;;;10.40;100.00;100976.63;5038663;28;20037;-70
2021/12/30 01:42:07;;;;;;;30.17;4.90;;;;;;;10.45;100.00;100969.22;5046114;28;20035;-70
2021/12/30 01:44:34;;;;;;;37.70;5.05;;;;;;;10.42;100.00;100969.50;5045772;28;20041;-70
2021/12/30 01:47:01;;;;;;;25.13;4.07;;;;;;;10.44;100.00;100961.59;5046446;28;20040;-70
2021/12/30 01:49:28;;;;;;;34.92;5.60;;;;;;;10.45;100.00;100958.00;5038973;28;20147;-71
2021/12/30 01:51:55;;;;;;;34.03;6.90;;;;;;;10.46;100.00;100960.44;5039626;28;20824;-70
2021/12/30 01:54:23;;;;;;;35.53;5.38;;;;;;;10.43;100.00;100967.72;5038417;28;20037;-70
2021/12/30 01:56:50;;;;;;;29.80;4.60;;;;;;;10.41;100.00;100965.28;5039293;28;20051;-70
2021/12/30 01:59:18;;;;;;;38.42;5.13;;;;;;;10.48;100.00;100962.91;5039895;28;20128;-70
2021/12/30 02:01:45;;;;;;;38.17;4.20;;;;;;;10.53;100.00;100965.88;5035941;28;20491;-70
2021/12/30 02:04:12;;;;;;;46.15;5.75;;;;;;;10.47;100.00;100964.69;5028519;28;20043;-70
2021/12/30 02:06:37;;;;;;;36.33;7.75;;;;;;;10.60;100.00;100951.31;5045861;28;20016;-70
2021/12/30 02:09:03;;;;;;;35.80;5.38;;;;;;;10.58;100.00;100952.44;5041260;28;20051;-71
2021/12/30 02:11:29;;;;;;;38.42;6.15;;;;;;;10.64;100.00;100955.25;5043288;28;20187;-70
2021/12/30 02:13:56;;;;;;;45.33;4.93;;;;;;;10.60;100.00;100953.91;5045652;28;20029;-70
2021/12/30 02:16:22;;;;;;;38.80;5.53;;;;;;;10.57;100.00;100953.38;5041196;28;20037;-70
2021/12/30 02:18:49;;;;;;;34.97;5.13;;;;;;;10.64;100.00;100960.44;5044415;28;20510;-70
2021/12/30 02:21:15;;;;;;;34.78;6.10;;;;;;;10.60;100.00;100959.06;5040928;28;20029;-70
2021/12/30 02:23:40;;;;;;;40.08;6.22;;;;;;;10.60;100.00;100940.13;5044082;28;21816;-70
2021/12/30 02:26:09;;;;;;;35.75;5.40;;;;;;;10.60;100.00;100950.50;5041129;28;20036;-70
2021/12/30 02:28:37;;;;;;;34.17;5.50;;;;;;;10.59;100.00;100949.69;5043173;28;20033;-71
2021/12/30 02:31:09;;;;;;;31.02;4.75;;;;;;;10.60;100.00;100945.31;5042850;28;20707;-70
2021/12/30 02:33:36;;;;;;;29.00;4.73;;;;;;;10.67;100.00;100947.13;5035600;28;20419;-71
2021/12/30 02:36:02;;;;;;;28.20;5.30;;;;;;;10.70;100.00;100946.84;5039843;28;20025;-70
2021/12/30 02:38:28;;;;;;;34.92;5.55;;;;;;;10.81;100.00;100960.50;5042953;28;20033;-70
2021/12/30 02:40:57;;;;;;;34.35;5.53;;;;;;;10.82;100.00;100969.94;5041704;28;20648;-70
2021/12/30 02:43:25;;;;;;;30.10;5.35;;;;;;;10.81;100.00;100966.53;5045160;28;20035;-70
2021/12/30 02:45:52;;;;;;;26.88;5.88;;;;;;;10.83;100.00;100967.19;5041891;28;20032;-70
2021/12/30 02:48:23;;;;;;;21.77;4.72;;;;;;;10.84;100.00;100958.41;5043506;28;20487;-70
2021/12/30 02:50:52;;;;;;;26.42;5.43;;;;;;;10.93;100.00;100961.09;5041548;28;20024;-70
2021/12/30 02:53:19;;;;;;;26.48;5.45;;;;;;;10.94;100.00;100962.69;5037459;28;20041;-70
2021/12/30 02:55:45;;;;;;;32.55;5.43;;;;;;;11.01;100.00;100964.50;5042318;28;20040;-70
2021/12/30 02:58:12;;;;;;;23.95;5.03;;;;;;;10.99;100.00;100963.06;5035278;28;20021;-70
2021/12/30 03:00:39;;;;;;;25.00;5.88;;;;;;;10.98;100.00;100962.25;5040912;28;20039;-70
2021/12/30 03:03:05;;;;;;;25.02;6.43;;;;;;;10.96;100.00;100971.13;5039508;28;20490;-70
2021/12/30 03:05:30;;;;;;;28.40;6.80;;;;;;;10.94;100.00;100979.06;5057001;28;20123;-70
2021/12/30 03:07:56;;;;;;;27.95;6.25;;;;;;;11.03;100.00;100978.13;5040520;28;20115;-70
2021/12/30 03:10:24;;;;;;;22.15;6.55;;;;;;;11.05;100.00;100981.41;5024837;28;20040;-70
2021/12/30 03:12:56;;;;;;;23.33;6.32;;;;;;;11.03;100.00;100991.13;5039004;28;20051;-70
2021/12/30 03:15:23;;;;;;;30.03;6.80;;;;;;;11.07;100.00;100978.66;5025036;28;20040;-70
2021/12/30 03:17:49;;;;;;;28.42;7.30;;;;;;;11.06;100.00;100983.03;5041203;28;20037;-70
2021/12/30 03:20:16;;;;;;;23.58;6.70;;;;;;;11.05;100.00;100984.00;5041278;28;20041;-70
2021/12/30 03:22:43;;;;;;;23.88;7.10;;;;;;;11.06;100.00;100984.81;5032818;28;20471;-71
2021/12/30 03:25:11;;;;;;;23.60;7.30;;;;;;;11.03;100.00;100980.72;5036808;28;20111;-71
2021/12/30 03:27:37;;;;;;;30.90;9.10;;;;;;;11.08;100.00;100977.69;5037110;28;20052;-70
2021/12/30 03:30:10;;;;;;;34.97;8.60;;;;;;;11.06;100.00;100983.03;5017017;28;20482;-71
2021/12/30 03:32:36;;;;;;;33.20;8.70;;;;;;;11.07;100.00;100983.84;5040081;28;20658;-71
2021/12/30 03:35:02;;;;;;;30.73;8.82;;;;;;;11.06;100.00;100985.63;5043183;28;20033;-71
2021/12/30 03:37:28;;;;;;;36.05;8.45;;;;;;;11.06;100.00;100990.00;5032924;28;20112;-71
2021/12/30 03:39:54;;;;;;;29.33;7.80;;;;;;;11.06;100.00;100977.03;5036579;28;20132;-71
2021/12/30 03:42:20;;;;;;;25.77;9.27;;;;;;;11.04;100.00;100986.75;5037162;28;20064;-71
2021/12/30 03:44:45;;;;;;;26.95;8.13;;;;;;;11.05;100.00;100980.59;5039797;28;20499;-70
2021/12/30 03:47:15;;;;;;;26.85;7.57;;;;;;;11.06;100.00;100985.63;5040306;28;20124;-71
2021/12/30 03:49:45;;;;;;;21.98;7.75;;;;;;;11.03;100.00;100996.31;5040579;28;20029;-70
2021/12/30 03:52:15;;;;;;;22.02;8.15;;;;;;;11.10;100.00;100988.72;5044352;28;20584;-71
2021/12/30 03:54:42;;;;;;;20.48;6.57;;;;;;;11.12;100.00;100988.59;5050410;28;20446;-71
2021/12/30 03:57:08;;;;;;;18.02;7.30;;;;;;;11.10;100.00;100994.72;5063289;28;20078;-70
2021/12/30 03:59:34;;;;;;;15.98;6.68;;;;;;;11.11;100.00;100985.16;5046718;28;20060;-71
2021/12/30 04:02:00;;;;;;;14.73;5.63;;;;;;;11.14;100.00;100984.03;5044027;28;20025;-71
2021/12/30 04:04:26;;;;;;;19.73;6.28;;;;;;;11.14;100.00;100986.63;5047277;28;20033;-70
2021/12/30 04:06:52;;;;;;;11.98;5.40;;;;;;;11.15;100.00;100983.91;5049278;28;20041;-71
2021/12/30 04:09:18;;;;;;;16.08;6.07;;;;;;;11.15;100.00;100985.66;5047766;28;20100;-71
2021/12/30 04:11:44;;;;;;;14.73;6.63;;;;;;;11.15;100.00;100983.91;5049458;28;20047;-70
2021/12/30 04:14:10;;;;;;;12.93;5.78;;;;;;;11.15;100.00;100980.47;5042377;28;20033;-71
2021/12/30 04:16:36;;;;;;;12.73;6.30;;;;;;;11.15;100.00;100988.25;5046875;28;20119;-71
2021/12/30 04:19:04;;;;;;;9.88;5.22;;;;;;;11.14;100.00;100987.44;5042087;28;20035;-71
2021/12/30 04:21:29;;;;;;;14.98;6.00;;;;;;;11.10;100.00;100986.94;5061306;28;20459;-71
2021/12/30 04:23:55;;;;;;;13.38;5.40;;;;;;;11.11;100.00;100982.56;5036222;28;20037;-70
2021/12/30 04:26:21;;;;;;;9.30;5.25;;;;;;;11.14;100.00;100978.84;5030624;28;20472;-71
2021/12/30 04:28:47;;;;;;;8.95;4.70;;;;;;;11.23;100.00;100991.72;5048024;28;20403;-70
2021/12/30 04:31:13;;;;;;;10.32;4.80;;;;;;;11.22;100.00;100990.06;5047056;28;20037;-70
2021/12/30 04:33:39;;;;;;;16.90;4.78;;;;;;;11.24;100.00;100988.13;5045032;28;20029;-70
2021/12/30 04:36:04;;;;;;;8.73;4.47;;;;;;;11.28;100.00;100989.47;5039117;28;20521;-70
2021/12/30 04:38:32;;;;;;;9.23;4.53;;;;;;;11.39;100.00;100990.16;5041995;28;20079;-70
2021/12/30 04:40:59;;;;;;;9.15;4.22;;;;;;;11.37;100.00;100990.28;5025183;28;20032;-70
2021/12/30 04:43:24;;;;;;;11.70;4.05;;;;;;;11.39;100.00;100982.34;5035349;28;20124;-71
2021/12/30 04:45:51;;;;;;;10.73;4.53;;;;;;;11.47;100.00;100997.97;5028628;28;20051;-71
2021/12/30 04:48:17;;;;;;;6.90;3.92;;;;;;;11.48;100.00;100997.00;5049921;28;20029;-70
2021/12/30 04:50:45;;;;;;;8.77;4.07;;;;;;;11.43;100.00;100987.09;5048802;28;20029;-70
2021/12/30 04:53:12;;;;;;;5.40;3.58;;;;;;;11.46;100.00;100991.97;5050415;28;20131;-71
2021/12/30 04:55:38;;;;;;;6.70;3.88;;;;;;;11.49;100.00;100989.06;5045902;28;20087;-71
2021/12/30 04:58:05;;;;;;;9.88;3.88;;;;;;;11.52;100.00;100998.31;5048392;28;20063;-71
2021/12/30 05:00:32;;;;;;;9.52;4.15;;;;;;;11.61;100.00;101001.75;5047348;28;20043;-72
2021/12/30 05:03:09;;;;;;;6.47;3.90;;;;;;;11.68;100.00;101005.34;5045457;28;20029;-71
2021/12/30 05:05:54;;;;;;;14.90;4.40;;;;;;;11.65;100.00;101000.47;5044974;28;20037;-71
2021/12/30 05:08:24;;;;;;;6.97;3.85;;;;;;;11.69;100.00;100999.16;5033252;28;20108;-70
2021/12/30 05:10:51;;;;;;;8.15;4.13;;;;;;;11.72;100.00;101008.44;5036144;28;20032;-70
2021/12/30 05:13:17;;;;;;;9.77;5.15;;;;;;;11.80;100.00;101011.88;5043637;28;20123;-71
2021/12/30 05:15:43;;;;;;;9.80;4.80;;;;;;;11.81;100.00;101020.47;5033100;28;20108;-71
2021/12/30 05:18:10;;;;;;;8.05;3.92;;;;;;;11.84;100.00;101007.97;5041960;28;20112;-71
2021/12/30 05:20:37;;;;;;;10.73;3.88;;;;;;;11.84;100.00;101007.16;5047398;28;20025;-71
2021/12/30 05:23:04;;;;;;;8.23;4.20;;;;;;;11.85;100.00;101006.22;5046198;28;20037;-71
2021/12/30 05:25:30;;;;;;;6.75;4.30;;;;;;;11.83;100.00;101006.38;5039987;28;20028;-71
2021/12/30 05:27:56;;;;;;;7.82;4.45;;;;;;;11.85;100.00;101011.41;5045749;28;20056;-70
2021/12/30 05:30:24;;;;;;;7.25;4.18;;;;;;;11.84;100.00;101009.75;5047693;28;20555;-71
2021/12/30 05:32:51;;;;;;;5.32;3.63;;;;;;;11.84;100.00;101010.56;5057718;28;20163;-71
2021/12/30 05:35:17;;;;;;;11.00;4.38;;;;;;;11.93;100.00;101001.06;5047165;28;20033;-71
2021/12/30 05:37:44;;;;;;;7.57;3.85;;;;;;;11.94;100.00;101010.47;5046027;28;20032;-70
2021/12/30 05:40:14;;;;;;;6.93;3.72;;;;;;;11.95;100.00;101014.69;5041863;28;20395;-71
2021/12/30 05:42:41;;;;;;;5.38;3.50;;;;;;;12.01;100.00;101005.44;5041653;28;20489;-71
2021/12/30 05:45:08;;;;;;;11.55;3.50;;;;;;;11.99;100.00;100999.59;5037435;28;20055;-71
2021/12/30 05:47:34;;;;;;;7.28;3.60;;;;;;;11.98;100.00;100997.97;5040445;28;20033;-71
2021/12/30 05:50:02;;;;;;;7.63;3.45;;;;;;;12.00;100.00;101015.03;5050925;28;20063;-71
2021/12/30 05:52:28;;;;;;;4.90;3.38;;;;;;;12.05;100.00;101014.53;5045294;28;21608;-70
2021/12/30 05:54:53;;;;;;;5.10;3.13;;;;;;;12.04;100.00;101007.72;5043749;28;20033;-71
2021/12/30 05:57:19;;;;;;;5.25;3.50;;;;;;;12.08;100.00;101019.44;5029129;28;20116;-70
2021/12/30 05:59:45;;;;;;;8.38;3.00;;;;;;;12.12;100.00;101028.53;5040272;28;20036;-70
2021/12/30 06:02:10;;;;;;;4.45;3.30;;;;;;;12.13;100.00;101027.56;5043741;28;20037;-70
2021/12/30 06:04:36;;;;;;;4.35;2.83;;;;;;;12.14;100.00;101026.56;5042615;28;20037;-71
2021/12/30 06:07:02;;;;;;;6.68;3.05;;;;;;;12.21;100.00;101039.75;5042214;28;20024;-71
2021/12/30 06:09:28;;;;;;;5.93;2.80;;;;;;;12.21;100.00;101032.75;5046707;28;20219;-70
2021/12/30 06:11:53;;;;;;;9.65;3.92;;;;;;;12.27;100.00;101036.50;5046814;28;20599;-71
2021/12/30 06:14:19;;;;;;;31.52;13.52;;;;;;;12.29;100.00;101044.16;5042824;28;20083;-71
2021/12/30 06:16:45;;;;;;;47.78;18.80;;;;;;;12.32;100.00;101043.81;5039243;28;20056;-71
2021/12/30 06:19:10;;;;;;;29.67;12.07;;;;;;;12.27;100.00;101047.72;5042724;28;20814;-71
2021/12/30 06:21:36;;;;;;;54.65;20.48;;;;;;;12.31;100.00;101058.59;5040587;28;20120;-71
2021/12/30 06:24:02;;;;;;;37.97;17.63;;;;;;;12.39;100.00;101063.00;5040632;28;20045;-71
2021/12/30 06:26:28;;;;;;;14.60;7.10;;;;;;;12.39;100.00;101060.41;5048121;28;20041;-71
2021/12/30 06:28:54;;;;;;;23.92;11.15;;;;;;;12.35;100.00;101049.50;5040373;28;20033;-71
2021/12/30 06:31:19;;;;;;;7.35;3.88;;;;;;;12.34;100.00;101060.91;5040306;28;20410;-71
2021/12/30 06:33:45;;;;;;;14.70;7.60;;;;;;;12.40;100.00;101057.66;5033821;28;20052;-71
2021/12/30 06:36:11;;;;;;;15.52;9.27;;;;;;;12.40;100.00;101062.03;5046913;28;20106;-70
2021/12/30 06:38:37;;;;;;;10.73;5.18;;;;;;;12.36;100.00;101066.75;5043079;28;20029;-70
2021/12/30 06:41:04;;;;;;;15.63;7.70;;;;;;;12.34;100.00;101060.91;5040883;28;20564;-70
2021/12/30 06:43:30;;;;;;;35.05;16.33;;;;;;;12.40;100.00;101065.44;5037316;28;20037;-71
2021/12/30 06:45:55;;;;;;;12.27;7.93;;;;;;;12.40;100.00;101069.84;5042033;28;20514;-71
2021/12/30 06:48:21;;;;;;;3.97;2.80;;;;;;;12.44;100.00;101071.13;5043055;28;20045;-71
2021/12/30 06:50:53;;;;;;;3.17;2.13;;;;;;;12.49;100.00;101066.28;5042477;28;20025;-71
2021/12/30 06:53:21;;;;;;;3.70;2.53;;;;;;;12.48;100.00;101064.63;5043218;28;20037;-71
2021/12/30 06:55:48;;;;;;;3.13;2.28;;;;;;;12.45;100.00;101063.19;5041475;28;20489;-71
2021/12/30 06:58:14;;;;;;;5.97;3.33;;;;;;;12.46;100.00;101069.19;5039306;28;20037;-71
2021/12/30 07:00:40;;;;;;;6.65;4.68;;;;;;;12.50;100.00;101075.69;5041979;28;20033;-71
2021/12/30 07:03:06;;;;;;;3.95;2.67;;;;;;;12.52;100.00;101073.75;5034825;28;20033;-71
2021/12/30 07:05:35;;;;;;;13.82;5.97;;;;;;;12.51;100.00;101069.53;5045114;28;20035;-71
2021/12/30 07:08:00;;;;;;;8.27;3.63;;;;;;;12.49;100.00;101083.66;5041877;28;20041;-71
2021/12/30 07:10:27;;;;;;;7.45;3.95;;;;;;;12.46;100.00;101088.19;5046214;28;20055;-71
2021/12/30 07:12:54;;;;;;;7.50;3.60;;;;;;;12.46;100.00;101079.59;5038205;28;20083;-71
2021/12/30 07:15:20;;;;;;;7.75;3.92;;;;;;;12.43;100.00;101087.72;5045361;28;20108;-71
2021/12/30 07:17:46;;;;;;;12.93;7.25;;;;;;;12.43;100.00;101090.31;5038500;28;20341;-71
2021/12/30 07:20:13;;;;;;;10.90;6.20;;;;;;;12.44;100.00;101099.75;5035234;28;20591;-71
2021/12/30 07:22:39;;;;;;;12.35;6.15;;;;;;;12.49;100.00;101099.25;5033272;28;20022;-71
2021/12/30 07:25:05;;;;;;;9.93;5.28;;;;;;;12.42;100.00;101099.91;5042458;28;20036;-71
2021/12/30 07:27:31;;;;;;;8.50;4.35;;;;;;;12.44;100.00;101110.16;5042085;28;20053;-71
2021/12/30 07:29:58;;;;;;;7.30;5.05;;;;;;;12.39;100.00;101123.63;5039184;28;20782;-71
2021/12/30 07:32:25;;;;;;;3.25;2.40;;;;;;;12.44;100.00;101130.97;5039914;28;20029;-71
2021/12/30 07:34:51;;;;;;;6.97;4.53;;;;;;;12.37;100.00;101125.56;5046075;28;20021;-70
2021/12/30 07:37:17;;;;;;;4.00;2.58;;;;;;;12.40;100.00;101133.06;5043101;28;20052;-71
2021/12/30 07:39:44;;;;;;;5.55;3.70;;;;;;;12.46;100.00;101139.41;5032602;28;20402;-70
2021/12/30 07:42:11;;;;;;;15.05;8.70;;;;;;;12.45;100.00;101151.63;5042526;28;20035;-70
2021/12/30 07:44:37;;;;;;;5.32;4.00;;;;;;;12.49;100.00;101148.66;5035991;28;20605;-71
2021/12/30 07:47:03;;;;;;;3.65;2.47;;;;;;;12.45;100.00;101153.38;5042478;28;20090;-71
2021/12/30 07:49:29;;;;;;;7.60;3.05;;;;;;;12.44;100.00;101162.16;5051952;28;20024;-71
2021/12/30 07:51:55;;;;;;;7.45;4.85;;;;;;;12.41;100.00;101165.06;5040215;28;20616;-71
2021/12/30 07:54:20;;;;;;;11.40;6.28;;;;;;;12.41;100.00;101165.06;5019718;28;20045;-70
2021/12/30 07:56:46;;;;;;;26.98;12.90;;;;;;;12.38;100.00;101176.63;5041341;28;20120;-70
2021/12/30 07:59:12;;;;;;;21.73;10.48;;;;;;;12.40;100.00;101177.28;5030574;28;20061;-70
2021/12/30 08:01:38;;;;;;;22.42;7.95;;;;;;;12.41;100.00;101176.31;5039718;28;20090;-71
2021/12/30 08:04:04;;;;;;;13.73;5.72;;;;;;;12.38;100.00;101187.03;5048550;28;20034;-71
2021/12/30 08:06:29;;;;;;;21.58;9.10;;;;;;;12.44;100.00;101183.78;5033915;28;20438;-71
2021/12/30 08:08:55;;;;;;;10.43;4.55;;;;;;;12.40;100.00;101182.47;5045462;28;20390;-71
2021/12/30 08:11:22;;;;;;;12.48;5.47;;;;;;;12.38;100.00;101191.41;5039614;28;20029;-70
2021/12/30 08:13:47;;;;;;;12.90;6.00;;;;;;;12.34;100.00;101193.50;5036692;28;20033;-71
2021/12/30 08:16:13;;;;;;;42.40;16.40;;;;;;;12.33;100.00;101191.06;5039615;28;20043;-70
2021/12/30 08:18:42;;;;;;;84.40;30.70;;;;;;;12.32;100.00;101192.88;5035705;28;20033;-71
2021/12/30 08:21:09;;;;;;;93.68;31.85;;;;;;;12.33;100.00;101194.47;5043670;28;20036;-70
2021/12/30 08:23:35;;;;;;;62.83;26.48;;;;;;;12.34;100.00;101200.47;5034336;28;20079;-71
2021/12/30 08:26:03;;;;;;;16.73;9.15;;;;;;;12.32;100.00;101192.88;5036882;28;20066;-70
2021/12/30 08:28:29;;;;;;;5.80;4.25;;;;;;;12.32;100.00;101200.66;5037342;28;20025;-70
2021/12/30 08:30:55;;;;;;;10.77;2.83;;;;;;;12.37;100.00;101197.56;5044982;28;20032;-71
2021/12/30 08:33:21;;;;;;;5.45;3.15;;;;;;;12.39;100.00;101199.03;5030643;28;20041;-71
2021/12/30 08:35:47;;;;;;;4.80;3.00;;;;;;;12.34;100.00;101213.47;5037012;28;20034;-70
2021/12/30 08:38:13;;;;;;;10.23;6.18;;;;;;;12.39;100.00;101217.25;5031897;28;20577;-70
2021/12/30 08:40:39;;;;;;;6.32;3.42;;;;;;;12.37;100.00;101221.78;5050387;28;20040;-70
2021/12/30 08:43:06;;;;;;;4.63;2.47;;;;;;;12.39;100.00;101224.22;5028367;28;20136;-71
2021/12/30 08:45:33;;;;;;;5.22;3.13;;;;;;;12.46;100.00;101220.03;5037877;28;20044;-71
2021/12/30 08:47:59;;;;;;;4.72;2.80;;;;;;;12.48;100.00;101222.47;5045656;28;20399;-71
2021/12/30 08:50:25;;;;;;;6.47;2.33;;;;;;;12.46;100.00;101233.03;5047132;28;20036;-71
2021/12/30 08:52:51;;;;;;;6.05;3.38;;;;;;;12.46;100.00;101227.84;5048679;28;20024;-71
2021/12/30 08:55:17;;;;;;;8.98;4.18;;;;;;;12.56;100.00;101212.09;5049876;28;20521;-71
2021/12/30 08:57:44;;;;;;;6.78;2.00;;;;;;;12.65;100.00;101200.72;5041483;28;20040;-70
2021/12/30 09:00:16;;;;;;;4.47;1.98;;;;;;;12.70;100.00;101210.69;5044968;28;20024;-71
2021/12/30 09:02:42;;;;;;;2.95;1.90;;;;;;;12.69;100.00;101209.84;5038439;28;20036;-71
2021/12/30 09:05:09;;;;;;;2.90;1.45;;;;;;;12.71;100.00;101204.47;5049073;28;20036;-70
2021/12/30 09:07:34;;;;;;;2.60;1.92;;;;;;;12.74;100.00;101214.59;5044206;28;20044;-70
2021/12/30 09:10:00;;;;;;;4.47;1.92;;;;;;;12.81;100.00;101218.97;5038804;28;20022;-71
2021/12/30 09:12:26;;;;;;;2.92;1.50;;;;;;;12.75;100.00;101217.03;5036914;28;20122;-70
2021/12/30 09:14:52;;;;;;;3.53;1.90;;;;;;;12.78;100.00;101221.09;5029907;28;20017;-71
2021/12/30 09:17:17;;;;;;;4.65;2.47;;;;;;;12.77;100.00;101232.47;5043051;28;20079;-71
2021/12/30 09:19:43;;;;;;;2.70;1.75;;;;;;;12.74;100.00;101222.41;5044963;28;20056;-71
2021/12/30 09:22:09;;;;;;;5.28;1.60;;;;;;;12.76;100.00;101225.66;5047588;28;20045;-71
2021/12/30 09:24:35;;;;;;;2.92;1.20;;;;;;;12.82;100.00;101228.41;5036635;28;20116;-71
2021/12/30 09:27:01;;;;;;;1.85;1.25;;;;;;;12.82;100.00;101238.81;5039567;28;20335;-70
2021/12/30 09:29:26;;;;;;;2.95;1.60;;;;;;;12.87;100.00;101255.75;5047280;28;20037;-70
2021/12/30 09:31:52;;;;;;;3.63;1.40;;;;;;;12.95;100.00;101250.56;5042277;28;20040;-71
2021/12/30 09:34:20;;;;;;;3.95;2.17;;;;;;;12.94;100.00;101254.13;5033974;28;20410;-71
2021/12/30 09:36:46;;;;;;;2.28;1.30;;;;;;;13.03;100.00;101255.78;5040344;28;20025;-70
2021/12/30 09:39:14;;;;;;;1.63;1.15;;;;;;;13.08;100.00;101260.50;5043148;28;20024;-71
2021/12/30 09:41:44;;;;;;;2.30;1.00;;;;;;;13.06;100.00;101263.28;5029002;28;20036;-70
2021/12/30 09:44:12;;;;;;;1.52;1.00;;;;;;;13.09;100.00;101267.31;5032128;28;20029;-71
2021/12/30 09:46:38;;;;;;;1.10;1.00;;;;;;;13.09;100.00;101264.72;5043622;28;20037;-71
2021/12/30 09:49:06;;;;;;;1.63;1.00;;;;;;;13.11;100.00;101262.78;5045519;28;20166;-70
2021/12/30 09:51:33;;;;;;;5.72;1.40;;;;;;;13.10;100.00;101258.56;5053965;28;20036;-70
2021/12/30 09:54:00;;;;;;;3.67;1.08;;;;;;;13.16;100.00;101257.91;5040814;28;20466;-70
2021/12/30 09:56:27;;;;;;;2.17;1.65;;;;;;;13.20;100.00;101260.03;5025903;28;20037;-71
2021/12/30 09:58:53;;;;;;;2.05;1.30;;;;;;;13.21;100.00;101261.66;5057855;28;20044;-70
2021/12/30 10:01:20;;;;;;;2.97;1.10;;;;;;;13.23;100.00;101258.88;5029300;28;20523;-70
2021/12/30 10:03:46;;;;;;;2.60;1.10;;;;;;;13.27;100.00;101252.38;5047441;28;20036;-70
2021/12/30 10:06:17;;;;;;;2.13;1.23;;;;;;;13.23;100.00;101267.50;5045871;28;20036;-71
2021/12/30 10:09:10;;;;;;;2.90;1.38;;;;;;;13.20;100.00;101264.41;5042904;28;20041;-70
2021/12/30 10:12:00;;;;;;;5.30;1.55;;;;;;;13.23;100.00;101264.09;5034970;28;20029;-71
2021/12/30 10:14:37;;;;;;;1.67;1.25;;;;;;;13.20;100.00;101269.63;5026099;28;20052;-70
2021/12/30 10:17:22;;;;;;;2.63;1.33;;;;;;;13.25;100.00;101272.56;5038670;28;20029;-70
2021/12/30 10:19:50;;;;;;;3.60;1.15;;;;;;;13.23;100.00;101275.31;5044134;28;20033;-71
2021/12/30 10:22:21;;;;;;;2.97;1.70;;;;;;;13.25;100.00;101275.97;5039363;28;20036;-70
2021/12/30 10:24:48;;;;;;;3.70;1.58;;;;;;;13.23;100.00;101282.31;5037937;28;20264;-70
2021/12/30 10:27:24;;;;;;;6.50;2.22;;;;;;;13.32;100.00;101280.59;5040539;28;20029;-71
2021/12/30 10:29:50;;;;;;;2.92;1.55;;;;;;;13.44;100.00;101292.28;5042937;28;20021;-70
2021/12/30 10:32:27;;;;;;;4.88;1.67;;;;;;;13.35;100.00;101288.06;5035012;28;20041;-70
2021/12/30 10:35:07;;;;;;;6.15;1.83;;;;;;;13.29;100.00;101275.66;5041278;28;20106;-70
2021/12/30 10:37:35;;;;;;;3.95;1.75;;;;;;;13.26;100.00;101276.81;5031207;28;20029;-71
2021/12/30 10:40:03;;;;;;;5.68;1.65;;;;;;;13.32;100.00;101273.56;5042275;28;20035;-70
2021/12/30 10:42:31;;;;;;;3.70;1.67;;;;;;;13.40;100.00;101286.59;5039115;28;20037;-71
2021/12/30 10:45:01;;;;;;;4.97;1.85;;;;;;;13.36;100.00;101284.47;5035040;28;20501;-71
2021/12/30 10:47:33;;;;;;;4.53;1.50;;;;;;;13.43;100.00;101296.69;5055122;28;20032;-70
2021/12/30 10:50:01;;;;;;;5.47;1.70;;;;;;;13.45;99.43;101291.31;5033217;28;20036;-71
2021/12/30 10:52:27;;;;;;;7.38;2.13;;;;;;;13.39;99.34;101302.38;5033951;28;20036;-70
2021/12/30 10:54:53;;;;;;;7.25;1.90;;;;;;;13.48;99.08;101288.38;5035012;28;20045;-71
2021/12/30 10:57:19;;;;;;;5.10;1.85;;;;;;;13.47;98.95;101288.53;5041682;28;20068;-71
2021/12/30 10:59:50;;;;;;;7.75;1.83;;;;;;;13.47;98.61;101285.94;5040164;28;20124;-72
2021/12/30 11:02:22;;;;;;;5.85;1.58;;;;;;;13.48;98.18;101288.38;5021487;28;20040;-72
2021/12/30 11:04:53;;;;;;;7.15;1.67;;;;;;;13.55;98.24;101288.56;5038354;28;20102;-72
2021/12/30 11:07:26;;;;;;;5.80;2.05;;;;;;;13.52;97.79;101294.09;5041037;28;20037;-71
2021/12/30 11:09:56;;;;;;;;;;;;;;;13.51;97.90;101282.84;5033267;28;20044;-71
2021/12/30 11:12:26;;;;;;;8.68;2.30;;;;;;;13.50;97.75;101281.22;5033019;28;20007;-71